Time;durP1;ratioP1;P1;durP2;ratioP2;P2;SDS_P1;SDS_P2;PMS_P1;PMS_P2;Temp;Humidity;BMP_temperature;BMP_pressure;BME280_temperature;BME280_humidity;BME280_pressure;Samples;Min_cycle;Max_cycle;Signal;HPM_P1;HPM_P2
2020/12/04 00:02:21;;;;;;;;;;;;;;;;;;5074970;28;1372;-59
2020/12/04 00:04:46;;;;;;;;;;;;;;;;;;5076383;28;1902;-62
2020/12/04 00:07:12;;;;;;;;;;;;;;;;;;5074450;28;798;-59
2020/12/04 00:09:39;;;;;;;;;;;;;;;;;;5075658;28;896;-63
2020/12/04 00:12:04;;;;;;;;;;;;;;;;;;5076114;28;1346;-63
2020/12/04 00:14:29;;;;;;;;;;;;;;;;;;5075837;28;928;-62
2020/12/04 00:16:54;;;;;;;;;;;;;;;;;;5074572;28;2395;-62
2020/12/04 00:19:20;;;;;;;;;;;;;;;;;;5075857;28;848;-61
2020/12/04 00:21:48;;;;;;;;;;;;;;;;;;5076192;28;1293;-63
2020/12/04 00:24:14;;;;;;;;;;;;;;;;;;5075589;28;1985;-62
2020/12/04 00:26:39;;;;;;;;;;;;;;;;;;5075847;28;908;-62
2020/12/04 00:29:05;;;;;;;;;;;;;;;;;;5075658;28;939;-63
2020/12/04 00:31:30;;;;;;;;;;;;;;;;;;5073894;28;1289;-62
2020/12/04 00:33:55;;;;;;;;;;;;;;;;;;5075273;28;1262;-63
2020/12/04 00:36:21;;;;;;;;;;;;;;;;;;5075792;28;801;-62
2020/12/04 00:38:46;;;;;;;;;;;;;;;;;;5075475;28;948;-62
2020/12/04 00:41:11;;;;;;;;;;;;;;;;;;5075536;28;1388;-60
2020/12/04 00:43:36;;;;;;;;;;;;;;;;;;5074558;28;1969;-63
2020/12/04 00:46:01;;;;;;;;;;;;;;;;;;5075509;28;845;-62
2020/12/04 00:48:27;;;;;;;;;;;;;;;;;;5075510;28;976;-62
2020/12/04 00:50:52;;;;;;;;;;;;;;;;;;5075638;28;1098;-61
2020/12/04 00:53:17;;;;;;;;;;;;;;;;;;5057114;28;1349;-61
2020/12/04 00:55:42;;;;;;;;;;;;;;;;;;5075146;28;865;-61
2020/12/04 00:58:08;;;;;;;;;;;;;;;;;;5074669;28;888;-62
2020/12/04 01:00:33;;;;;;;;;;;;;;;;;;5074482;28;1540;-62
2020/12/04 01:02:58;;;;;;;;;;;;;;;;;;5074714;28;1416;-61
2020/12/04 01:05:23;;;;;;;;;;;;;;;;;;5074016;28;1985;-63
2020/12/04 01:07:48;;;;;;;;;;;;;;;;;;5073632;28;1214;-61
2020/12/04 01:10:14;;;;;;;;;;;;;;;;;;5075225;28;817;-62
2020/12/04 01:12:42;;;;;;;;;;;;;;;;;;5075128;28;1313;-62
2020/12/04 01:15:08;;;;;;;;;;;;;;;;;;5074715;28;896;-60
2020/12/04 01:17:33;;;;;;;;;;;;;;;;;;5073300;28;1195;-61
2020/12/04 01:19:58;;;;;;;;;;;;;;;;;;5074749;28;1070;-61
2020/12/04 01:22:23;;;;;;;;;;;;;;;;;;5074972;28;1302;-58
2020/12/04 01:24:48;;;;;;;;;;;;;;;;;;5074612;28;1898;-63
2020/12/04 01:27:14;;;;;;;;;;;;;;;;;;5074287;28;1011;-62
2020/12/04 01:29:39;;;;;;;;;;;;;;;;;;5074532;28;785;-62
2020/12/04 01:32:04;;;;;;;;;;;;;;;;;;5073432;28;1298;-62
2020/12/04 01:34:29;;;;;;;;;;;;;;;;;;5074407;28;889;-63
2020/12/04 01:36:55;;;;;;;;;;;;;;;;;;5073126;28;923;-63
2020/12/04 01:39:20;;;;;;;;;;;;;;;;;;5074379;28;1140;-63
2020/12/04 01:41:45;;;;;;;;;;;;;;;;;;5072961;28;1608;-62
2020/12/04 01:44:11;;;;;;;;;;;;;;;;;;5072869;28;1957;-63
2020/12/04 01:46:36;;;;;;;;;;;;;;;;;;5073059;28;998;-63
2020/12/04 01:49:01;;;;;;;;;;;;;;;;;;5072937;28;845;-62
2020/12/04 01:51:27;;;;;;;;;;;;;;;;;;5072960;28;1385;-63
2020/12/04 01:53:53;;;;;;;;;;;;;;;;;;5073842;28;801;-63
2020/12/04 01:56:18;;;;;;;;;;;;;;;;;;5072631;28;1379;-62
2020/12/04 01:58:43;;;;;;;;;;;;;;;;;;5072886;28;853;-62
2020/12/04 02:01:12;;;;;;;;;;;;;;;;;;5074122;28;797;-63
2020/12/04 02:03:37;;;;;;;;;;;;;;;;;;5074065;28;1902;-62
2020/12/04 02:06:05;;;;;;;;;;;;;;;;;;5072577;28;1370;-62
2020/12/04 02:08:37;;;;;;;;;;;;;;;;;;5074038;28;870;-62
2020/12/04 02:11:05;;;;;;;;;;;;;;;;;;5072376;28;897;-63
2020/12/04 02:13:31;;;;;;;;;;;;;;;;;;5072302;28;1619;-63
2020/12/04 02:15:57;;;;;;;;;;;;;;;;;;5073469;28;999;-62
2020/12/04 02:18:23;;;;;;;;;;;;;;;;;;5072494;28;2248;-63
2020/12/04 02:20:58;;;;;;;;;;;;;;;;;;5073634;28;891;-63
2020/12/04 02:23:24;;;;;;;;;;;;;;;;;;5073383;28;1955;-63
2020/12/04 02:25:49;;;;;;;;;;;;;;;;;;5073342;28;996;-63
2020/12/04 02:28:14;;;;;;;;;;;;;;;;;;5072262;28;983;-63
2020/12/04 02:30:40;;;;;;;;;;;;;;;;;;5073784;28;892;-63
2020/12/04 02:33:05;;;;;;;;;;;;;;;;;;5073177;28;1329;-61
2020/12/04 02:35:30;;;;;;;;;;;;;;;;;;5073255;28;971;-63
2020/12/04 02:37:56;;;;;;;;;;;;;;;;;;5055116;28;1285;-63
2020/12/04 02:40:21;;;;;;;;;;;;;;;;;;5073539;28;932;-63
2020/12/04 02:42:49;;;;;;;;;;;;;;;;;;5073377;28;1345;-62
2020/12/04 02:45:14;;;;;;;;;;;;;;;;;;5073152;28;1893;-63
2020/12/04 02:47:42;;;;;;;;;;;;;;;;;;5072996;28;932;-63
2020/12/04 02:50:08;;;;;;;;;;;;;;;;;;5073197;28;893;-60
2020/12/04 02:52:33;;;;;;;;;;;;;;;;;;5071903;28;1345;-62
2020/12/04 02:54:58;;;;;;;;;;;;;;;;;;5072421;28;825;-62
2020/12/04 02:57:23;;;;;;;;;;;;;;;;;;5073205;28;1010;-63
2020/12/04 02:59:49;;;;;;;;;;;;;;;;;;5073100;28;824;-63
2020/12/04 03:02:14;;;;;;;;;;;;;;;;;;5073265;28;1294;-62
2020/12/04 03:04:39;;;;;;;;;;;;;;;;;;5072704;28;1976;-63
2020/12/04 03:07:05;;;;;;;;;;;;;;;;;;5052557;28;1055;-63
2020/12/04 03:09:31;;;;;;;;;;;;;;;;;;5053065;28;870;-62
2020/12/04 03:11:56;;;;;;;;;;;;;;;;;;5051573;28;1373;-62
2020/12/04 03:14:25;;;;;;;;;;;;;;;;;;5052787;28;797;-63
2020/12/04 03:16:50;;;;;;;;;;;;;;;;;;5051484;28;828;-63
2020/12/04 03:19:15;;;;;;;;;;;;;;;;;;5053023;28;825;-63
2020/12/04 03:21:40;;;;;;;;;;;;;;;;;;5052368;28;1313;-62
2020/12/04 03:24:06;;;;;;;;;;;;;;;;;;5051821;28;2021;-63
2020/12/04 03:26:31;;;;;;;;;;;;;;;;;;5053386;28;943;-63
2020/12/04 03:28:56;;;;;;;;;;;;;;;;;;5051950;28;913;-61
2020/12/04 03:31:21;;;;;;;;;;;;;;;;;;5053381;28;1349;-63
2020/12/04 03:33:47;;;;;;;;;;;;;;;;;;5052357;28;897;-63
2020/12/04 03:36:12;;;;;;;;;;;;;;;;;;5052961;28;976;-62
2020/12/04 03:38:37;;;;;;;;;;;;;;;;;;5051825;28;1818;-62
2020/12/04 03:41:02;;;;;;;;;;;;;;;;;;5053442;28;849;-60
2020/12/04 03:43:28;;;;;;;;;;;;;;;;;;5051864;28;1894;-63
2020/12/04 03:45:53;;;;;;;;;;;;;;;;;;5053033;28;821;-61
2020/12/04 03:48:18;;;;;;;;;;;;;;;;;;5051522;28;2637;-60
2020/12/04 03:50:43;;;;;;;;;;;;;;;;;;5052213;28;806;-63
2020/12/04 03:53:09;;;;;;;;;;;;;;;;;;5053016;28;1358;-63
2020/12/04 03:55:34;;;;;;;;;;;;;;;;;;5051804;28;1312;-62
2020/12/04 03:57:59;;;;;;;;;;;;;;;;;;5052682;28;813;-62
2020/12/04 04:00:25;;;;;;;;;;;;;;;;;;5053248;28;798;-63
2020/12/04 04:02:50;;;;;;;;;;;;;;;;;;5052780;28;1298;-63
2020/12/04 04:05:16;;;;;;;;;;;;;;;;;;5052830;28;1866;-62
2020/12/04 04:07:41;;;;;;;;;;;;;;;;;;5055175;28;1004;-62
2020/12/04 04:10:07;;;;;;;;;;;;;;;;;;5056626;28;952;-63
2020/12/04 04:12:32;;;;;;;;;;;;;;;;;;5056752;28;1298;-63
2020/12/04 04:14:57;;;;;;;;;;;;;;;;;;5056283;28;833;-63
2020/12/04 04:17:23;;;;;;;;;;;;;;;;;;5056603;28;892;-63
2020/12/04 04:19:48;;;;;;;;;;;;;;;;;;5054904;28;1230;-63
2020/12/04 04:22:13;;;;;;;;;;;;;;;;;;5056655;28;1424;-63
2020/12/04 04:24:38;;;;;;;;;;;;;;;;;;5055103;28;1894;-63
2020/12/04 04:27:04;;;;;;;;;;;;;;;;;;5055100;28;953;-63
2020/12/04 04:29:29;;;;;;;;;;;;;;;;;;5056385;28;884;-62
2020/12/04 04:31:54;;;;;;;;;;;;;;;;;;5056003;28;1372;-63
2020/12/04 04:34:20;;;;;;;;;;;;;;;;;;5056153;28;896;-63
2020/12/04 04:36:46;;;;;;;;;;;;;;;;;;5054862;28;1920;-63
2020/12/04 04:39:11;;;;;;;;;;;;;;;;;;5056002;28;790;-63
2020/12/04 04:41:36;;;;;;;;;;;;;;;;;;5054917;28;1461;-63
2020/12/04 04:44:01;;;;;;;;;;;;;;;;;;5054585;28;1951;-63
2020/12/04 04:46:30;;;;;;;;;;;;;;;;;;5054549;28;1397;-63
2020/12/04 04:48:57;;;;;;;;;;;;;;;;;;5055991;28;947;-63
2020/12/04 04:51:24;;;;;;;;;;;;;;;;;;5054863;28;1334;-63
2020/12/04 04:53:56;;;;;;;;;;;;;;;;;;5054615;28;810;-63
2020/12/04 04:56:22;;;;;;;;;;;;;;;;;;5055963;28;814;-63
2020/12/04 04:58:47;;;;;;;;;;;;;;;;;;5055803;28;805;-63
2020/12/04 05:01:12;;;;;;;;;;;;;;;;;;5055769;28;1337;-63
2020/12/04 05:03:37;;;;;;;;;;;;;;;;;;5054157;28;1898;-63
2020/12/04 05:06:03;;;;;;;;;;;;;;;;;;5054114;28;1360;-63
2020/12/04 05:08:28;;;;;;;;;;;;;;;;;;5055701;28;904;-63
2020/12/04 05:11:05;;;;;;;;;;;;;;;;;;5054673;28;943;-64
2020/12/04 05:13:30;;;;;;;;;;;;;;;;;;5055359;28;1333;-63
2020/12/04 05:15:56;;;;;;;;;;;;;;;;;;5055057;28;1054;-63
2020/12/04 05:18:22;;;;;;;;;;;;;;;;;;5055252;28;849;-63
2020/12/04 05:20:51;;;;;;;;;;;;;;;;;;5054272;28;834;-63
2020/12/04 05:23:17;;;;;;;;;;;;;;;;;;5053778;28;1897;-63
2020/12/04 05:25:43;;;;;;;;;;;;;;;;;;5054053;28;1203;-63
2020/12/04 05:28:13;;;;;;;;;;;;;;;;;;5055006;28;987;-62
2020/12/04 05:30:39;;;;;;;;;;;;;;;;;;5055459;28;813;-63
2020/12/04 05:33:06;;;;;;;;;;;;;;;;;;5054884;28;1449;-62
2020/12/04 05:35:31;;;;;;;;;;;;;;;;;;5053919;28;2408;-62
2020/12/04 05:38:06;;;;;;;;;;;;;;;;;;5054983;28;876;-61
2020/12/04 05:40:32;;;;;;;;;;;;;;;;;;5055259;28;988;-63
2020/12/04 05:42:57;;;;;;;;;;;;;;;;;;5054622;28;1373;-63
2020/12/04 05:45:23;;;;;;;;;;;;;;;;;;5053729;28;1902;-62
2020/12/04 05:47:48;;;;;;;;;;;;;;;;;;5054962;28;861;-63
2020/12/04 05:50:14;;;;;;;;;;;;;;;;;;5053671;28;1085;-63
2020/12/04 05:52:39;;;;;;;;;;;;;;;;;;5053556;28;1427;-63
2020/12/04 05:55:05;;;;;;;;;;;;;;;;;;5054393;28;880;-61
2020/12/04 05:57:44;;;;;;;;;;;;;;;;;;5054769;28;901;-64
2020/12/04 06:00:11;;;;;;;;;;;;;;;;;;5054539;28;913;-63
2020/12/04 06:02:38;;;;;;;;;;;;;;;;;;5053347;28;1397;-63
2020/12/04 06:05:03;;;;;;;;;;;;;;;;;;5054052;28;1894;-63
2020/12/04 06:07:28;;;;;;;;;;;;;;;;;;5053354;28;1000;-63
2020/12/04 06:09:57;;;;;;;;;;;;;;;;;;5053082;28;806;-64
2020/12/04 06:12:23;;;;;;;;;;;;;;;;;;5054500;28;1322;-63
2020/12/04 06:14:48;;;;;;;;;;;;;;;;;;5054379;28;806;-63
2020/12/04 06:17:14;;;;;;;;;;;;;;;;;;5054307;28;782;-63
2020/12/04 06:19:40;;;;;;;;;;;;;;;;;;5052772;28;909;-63
2020/12/04 06:22:05;;;;;;;;;;;;;;;;;;5054244;28;1401;-62
2020/12/04 06:24:31;;;;;;;;;;;;;;;;;;5052892;28;1961;-63
2020/12/04 06:26:56;;;;;;;;;;;;;;;;;;5035982;28;830;-63
2020/12/04 06:29:21;;;;;;;;;;;;;;;;;;5053462;28;817;-63
2020/12/04 06:31:47;;;;;;;;;;;;;;;;;;5054202;28;1424;-63
2020/12/04 06:34:16;;;;;;;;;;;;;;;;;;5054343;28;829;-63
2020/12/04 06:36:42;;;;;;;;;;;;;;;;;;5052735;28;841;-63
2020/12/04 06:39:08;;;;;;;;;;;;;;;;;;5052323;28;822;-63
2020/12/04 06:41:45;;;;;;;;;;;;;;;;;;5054252;28;1392;-62
2020/12/04 06:44:21;;;;;;;;;;;;;;;;;;5053650;28;1939;-63
2020/12/04 06:46:50;;;;;;;;;;;;;;;;;;5052780;28;1027;-63
2020/12/04 06:52:07;;;;;;;;;;;;;;;;;;5053538;28;1361;-63
2020/12/04 06:54:34;;;;;;;;;;;;;;;;;;5052589;28;856;-63
2020/12/04 06:56:59;;;;;;;;;;;;;;;;;;5052287;28;828;-63
2020/12/04 06:59:28;;;;;;;;;;;;;;;;;;5053669;28;967;-63
2020/12/04 07:01:57;;;;;;;;;;;;;;;;;;5053584;28;1353;-62
2020/12/04 07:04:22;;;;;;;;;;;;;;;;;;5053543;28;1963;-63
2020/12/04 07:06:48;;;;;;;;;;;;;;;;;;5052213;28;1194;-63
2020/12/04 07:09:13;;;;;;;;;;;;;;;;;;5052542;28;1235;-63
2020/12/04 07:11:38;;;;;;;;;;;;;;;;;;5052306;28;1390;-63
2020/12/04 07:14:04;;;;;;;;;;;;;;;;;;5053282;28;848;-63
2020/12/04 07:16:30;;;;;;;;;;;;;;;;;;5053390;28;967;-63
2020/12/04 07:18:55;;;;;;;;;;;;;;;;;;5053409;28;715;-62
2020/12/04 07:21:21;;;;;;;;;;;;;;;;;;5053657;28;1318;-63
2020/12/04 07:23:46;;;;;;;;;;;;;;;;;;5052037;28;2016;-63
2020/12/04 07:26:12;;;;;;;;;;;;;;;;;;5051607;28;1602;-63
2020/12/04 07:28:37;;;;;;;;;;;;;;;;;;5052217;28;1629;-63
2020/12/04 07:31:02;;;;;;;;;;;;;;;;;;5053138;28;936;-63
2020/12/04 07:33:28;;;;;;;;;;;;;;;;;;5053528;28;1353;-62
2020/12/04 07:36:02;;;;;;;;;;;;;;;;;;5053056;28;825;-63
2020/12/04 07:38:28;;;;;;;;;;;;;;;;;;5053384;28;822;-64
2020/12/04 07:40:53;;;;;;;;;;;;;;;;;;5053276;28;1443;-62
2020/12/04 07:43:18;;;;;;;;;;;;;;;;;;5055887;28;1346;-63
2020/12/04 07:45:43;;;;;;;;;;;;;;;;;;5055911;28;1313;-62
2020/12/04 07:48:09;;;;;;;;;;;;;;;;;;5056921;28;829;-64
2020/12/04 07:50:34;;;;;;;;;;;;;;;;;;5057153;28;797;-62
2020/12/04 07:52:59;;;;;;;;;;;;;;;;;;5056678;28;1395;-61
2020/12/04 07:55:25;;;;;;;;;;;;;;;;;;5057141;28;814;-62
2020/12/04 07:57:50;;;;;;;;;;;;;;;;;;5056916;28;849;-62
2020/12/04 08:00:16;;;;;;;;;;;;;;;;;;5056900;28;976;-63
2020/12/04 08:02:41;;;;;;;;;;;;;;;;;;5055347;28;1365;-62
2020/12/04 08:05:06;;;;;;;;;;;;;;;;;;5056503;28;1898;-63
2020/12/04 08:07:33;;;;;;;;;;;;;;;;;;5056741;28;793;-63
2020/12/04 08:10:01;;;;;;;;;;;;;;;;;;5055362;28;1218;-62
2020/12/04 08:12:27;;;;;;;;;;;;;;;;;;5055442;28;1464;-61
2020/12/04 08:14:53;;;;;;;;;;;;;;;;;;5055192;28;1223;-63
2020/12/04 08:17:20;;;;;;;;;;;;;;;;;;5056269;28;872;-63
2020/12/04 08:19:45;;;;;;;;;;;;;;;;;;5038616;28;1357;-63
2020/12/04 08:22:11;;;;;;;;;;;;;;;;;;5056491;28;1286;-64
2020/12/04 08:24:40;;;;;;;;;;;;;;;;;;5056767;28;1890;-64
2020/12/04 08:27:07;;;;;;;;;;;;;;;;;;5054997;28;1332;-64
2020/12/04 08:29:33;;;;;;;;;;;;;;;;;;5054993;28;1234;-63
2020/12/04 08:32:17;;;;;;;;;;;;;;;;;;5054602;28;1441;-64
2020/12/04 08:34:43;;;;;;;;;;;;;;;;;;5056423;28;817;-64
2020/12/04 08:37:10;;;;;;;;;;;;;;;;;;5054731;28;806;-64
2020/12/04 08:39:43;;;;;;;;;;;;;;;;;;5055667;28;1239;-64
2020/12/04 08:42:15;;;;;;;;;;;;;;;;;;5053089;28;1490;-64
2020/12/04 08:45:01;;;;;;;;;;;;;;;;;;5052446;28;1957;-64
2020/12/04 08:47:30;;;;;;;;;;;;;;;;;;5077612;28;2314;-65
2020/12/04 08:49:56;;;;;;;;;;;;;;;;;;5054604;28;1305;-65
2020/12/04 08:52:53;;;;;;;;;;;;;;;;;;5055224;28;1305;-65
2020/12/04 08:55:19;;;;;;;;;;;;;;;;;;5032655;28;1533;-64
2020/12/04 08:57:44;;;;;;;;;;;;;;;;;;5054453;28;1844;-64
2020/12/04 09:00:11;;;;;;;;;;;;;;;;;;5055677;28;857;-65
2020/12/04 09:02:37;;;;;;;;;;;;;;;;;;5055680;28;1365;-65
2020/12/04 09:05:07;;;;;;;;;;;;;;;;;;5053932;28;1902;-65
2020/12/04 09:07:32;;;;;;;;;;;;;;;;;;5054217;28;1535;-65
2020/12/04 09:09:57;;;;;;;;;;;;;;;;;;5055537;28;842;-65
2020/12/04 09:12:24;;;;;;;;;;;;;;;;;;5055926;28;1436;-65
2020/12/04 09:14:49;;;;;;;;;;;;;;;;;;5054097;28;853;-64
2020/12/04 09:17:15;;;;;;;;;;;;;;;;;;5055244;28;809;-64
2020/12/04 09:19:40;;;;;;;;;;;;;;;;;;5054011;28;1251;-65
2020/12/04 09:22:05;;;;;;;;;;;;;;;;;;5054180;28;1501;-66
2020/12/04 09:24:30;;;;;;;;;;;;;;;;;;5055351;28;1949;-66
2020/12/04 09:26:56;;;;;;;;;;;;;;;;;;5054991;28;783;-68
2020/12/04 09:29:21;;;;;;;;;;;;;;;;;;5055225;28;952;-69
2020/12/04 09:31:46;;;;;;;;;;;;;;;;;;5055108;28;1392;-68
2020/12/04 09:34:12;;;;;;;;;;;;;;;;;;5053719;28;1222;-68
2020/12/04 09:36:37;;;;;;;;;;;;;;;;;;5054955;28;920;-70
2020/12/04 09:39:02;;;;;;;;;;;;;;;;;;5054807;28;888;-68
2020/12/04 09:41:31;;;;;;;;;;;;;;;;;;5055028;28;1314;-66
2020/12/04 09:43:56;;;;;;;;;;;;;;;;;;5054561;28;1938;-66
2020/12/04 09:46:21;;;;;;;;;;;;;;;;;;5054869;28;975;-65
2020/12/04 09:48:46;;;;;;;;;;;;;;;;;;5054917;28;802;-69
2020/12/04 09:51:12;;;;;;;;;;;;;;;;;;5053508;28;1480;-66
2020/12/04 09:53:37;;;;;;;;;;;;;;;;;;5053856;28;1485;-68
2020/12/04 09:56:02;;;;;;;;;;;;;;;;;;5054497;28;865;-66
2020/12/04 09:58:28;;;;;;;;;;;;;;;;;;5054795;28;825;-67
2020/12/04 10:00:53;;;;;;;;;;;;;;;;;;5053425;28;1109;-68
2020/12/04 10:03:18;;;;;;;;;;;;;;;;;;5052980;28;1314;-68
2020/12/04 10:05:43;;;;;;;;;;;;;;;;;;5053533;28;1961;-66
2020/12/04 10:08:08;;;;;;;;;;;;;;;;;;5053196;28;1159;-66
2020/12/04 10:10:34;;;;;;;;;;;;;;;;;;5054762;28;877;-68
2020/12/04 10:12:59;;;;;;;;;;;;;;;;;;5054026;28;1425;-68
2020/12/04 10:15:24;;;;;;;;;;;;;;;;;;5054462;28;826;-65
2020/12/04 10:17:49;;;;;;;;;;;;;;;;;;5053993;28;1183;-67
2020/12/04 10:20:15;;;;;;;;;;;;;;;;;;5054322;28;932;-68
2020/12/04 10:22:40;;;;;;;;;;;;;;;;;;5054122;28;1389;-66
2020/12/04 10:25:05;;;;;;;;;;;;;;;;;;5054243;28;2011;-66
2020/12/04 10:27:30;;;;;;;;;;;;;;;;;;5054012;28;821;-65
2020/12/04 10:29:56;;;;;;;;;;;;;;;;;;5054048;28;868;-66
2020/12/04 10:32:21;;;;;;;;;;;;;;;;;;5054118;28;1282;-67
2020/12/04 10:34:47;;;;;;;;;;;;;;;;;;5053993;28;935;-67
2020/12/04 10:37:12;;;;;;;;;;;;;;;;;;5053802;28;1061;-66
2020/12/04 10:39:37;;;;;;;;;;;;;;;;;;5053834;28;890;-66
2020/12/04 10:42:03;;;;;;;;;;;;;;;;;;5053858;28;1337;-66
2020/12/04 10:44:28;;;;;;;;;;;;;;;;;;5053548;28;1898;-66
2020/12/04 10:46:53;;;;;;;;;;;;;;;;;;5053548;28;805;-67
2020/12/04 10:49:19;;;;;;;;;;;;;;;;;;5053874;28;813;-68
2020/12/04 10:51:44;;;;;;;;;;;;;;;;;;5054086;28;1329;-64
2020/12/04 10:54:10;;;;;;;;;;;;;;;;;;5052482;28;1400;-64
2020/12/04 10:56:35;;;;;;;;;;;;;;;;;;5053538;28;806;-63
2020/12/04 10:59:01;;;;;;;;;;;;;;;;;;5064430;23;2852;-80
2020/12/04 11:06:21;;;;;;;;;;;;;;;;;;5035452;28;801;-80
2020/12/04 11:08:49;;;;;;;;;;;;;;;;;;5035964;28;822;-80
2020/12/04 11:11:15;;;;;;;;;;;;;;;;;;5034003;28;1311;-80
2020/12/04 11:13:41;;;;;;;;;;;;;;;;;;5034490;28;1553;-80
2020/12/04 11:16:06;;;;;;;;;;;;;;;;;;5035395;28;885;-80
2020/12/04 11:18:31;;;;;;;;;;;;;;;;;;5034571;28;1324;-80
2020/12/04 11:20:56;;;;;;;;;;;;;;;;;;5043619;28;977;-81
2020/12/04 11:23:22;;;;;;;;;;;;;;;;;;5036688;28;1405;-80
2020/12/04 11:25:47;;;;;;;;;;;;;;;;;;5035868;28;1902;-80
2020/12/04 11:28:12;;;;;;;;;;;;;;;;;;5035819;28;1120;-80
2020/12/04 11:30:37;;;;;;;;;;;;;;;;;;5034500;28;1407;-81
2020/12/04 11:33:03;;;;;;;;;;;;;;;;;;5034750;28;1282;-80
2020/12/04 11:35:28;;;;;;;;;;;;;;;;;;5032366;28;1250;-80
2020/12/04 11:37:57;;;;;;;;;;;;;;;;;;5032668;28;1200;-81
2020/12/04 11:40:22;;;;;;;;;;;;;;;;;;5032333;28;1295;-81
2020/12/04 11:42:48;;;;;;;;;;;;;;;;;;5033753;28;1373;-81
2020/12/04 11:45:14;;;;;;;;;;;;;;;;;;5032270;28;1967;-80
2020/12/04 11:47:40;;;;;;;;;;;;;;;;;;5033669;28;1312;-81
2020/12/04 11:50:06;;;;;;;;;;;;;;;;;;5033792;28;810;-80
2020/12/04 11:52:31;;;;;;;;;;;;;;;;;;5032439;28;1453;-81
2020/12/04 11:54:57;;;;;;;;;;;;;;;;;;5033823;28;845;-80
2020/12/04 11:57:22;;;;;;;;;;;;;;;;;;5032102;28;1268;-80
2020/12/04 11:59:49;;;;;;;;;;;;;;;;;;5032004;28;1267;-80
2020/12/04 12:02:14;;;;;;;;;;;;;;;;;;5035385;28;1376;-80
2020/12/04 12:04:39;;;;;;;;;;;;;;;;;;5032308;28;2343;-80
2020/12/04 12:07:04;;;;;;;;;;;;;;;;;;5032233;28;1199;-80
2020/12/04 12:09:30;;;;;;;;;;;;;;;;;;5026877;28;1364;-81
2020/12/04 12:11:55;;;;;;;;;;;;;;;;;;5024025;28;1641;-80
2020/12/04 12:14:20;;;;;;;;;;;;;;;;;;5018939;28;1415;-81
2020/12/04 12:16:46;;;;;;;;;;;;;;;;;;5014370;28;929;-80
2020/12/04 12:19:12;;;;;;;;;;;;;;;;;;5014170;28;849;-80
2020/12/04 12:21:40;;;;;;;;;;;;;;;;;;5013942;28;1306;-80
2020/12/04 12:24:05;;;;;;;;;;;;;;;;;;5012568;28;1898;-80
2020/12/04 12:26:31;;;;;;;;;;;;;;;;;;5013336;28;1540;-80
2020/12/04 12:28:56;;;;;;;;;;;;;;;;;;5016410;28;1029;-80
2020/12/04 12:31:21;;;;;;;;;;;;;;;;;;5016492;28;1444;-80
2020/12/04 12:33:50;;;;;;;;;;;;;;;;;;5017405;28;791;-81
2020/12/04 12:36:15;;;;;;;;;;;;;;;;;;5017621;28;846;-80
2020/12/04 12:38:40;;;;;;;;;;;;;;;;;;5018035;28;830;-80
2020/12/04 12:41:06;;;;;;;;;;;;;;;;;;5017415;28;1373;-80
2020/12/04 12:43:32;;;;;;;;;;;;;;;;;;5016186;28;1945;-81
2020/12/04 12:45:57;;;;;;;;;;;;;;;;;;5017521;28;866;-80
2020/12/04 12:48:22;;;;;;;;;;;;;;;;;;5017294;28;1024;-81
2020/12/04 12:50:47;;;;;;;;;;;;;;;;;;5017260;28;1192;-80
2020/12/04 12:53:13;;;;;;;;;;;;;;;;;;5018635;28;1282;-80
2020/12/04 12:55:38;;;;;;;;;;;;;;;;;;5018503;28;869;-80
2020/12/04 12:58:03;;;;;;;;;;;;;;;;;;5016847;28;1199;-80
2020/12/04 13:00:28;;;;;;;;;;;;;;;;;;5016080;28;1219;-80
2020/12/04 13:02:54;;;;;;;;;;;;;;;;;;5015612;28;1417;-80
2020/12/04 13:05:32;;;;;;;;;;;;;;;;;;5017010;28;1951;-80
2020/12/04 13:07:58;;;;;;;;;;;;;;;;;;5016827;28;892;-80
2020/12/04 13:10:23;;;;;;;;;;;;;;;;;;5016477;28;885;-80
2020/12/04 13:12:49;;;;;;;;;;;;;;;;;;5016633;28;1298;-80
2020/12/04 13:15:14;;;;;;;;;;;;;;;;;;5016776;28;914;-80
2020/12/04 13:17:39;;;;;;;;;;;;;;;;;;5016598;28;802;-80
2020/12/04 13:20:05;;;;;;;;;;;;;;;;;;5016706;28;853;-80
2020/12/04 13:22:30;;;;;;;;;;;;;;;;;;5015084;28;1469;-80
2020/12/04 13:24:55;;;;;;;;;;;;;;;;;;5015445;28;1893;-80
2020/12/04 13:27:21;;;;;;;;;;;;;;;;;;5016396;28;894;-80
2020/12/04 13:29:46;;;;;;;;;;;;;;;;;;5015085;28;1231;-80
2020/12/04 13:32:11;;;;;;;;;;;;;;;;;;5015121;28;1330;-80
2020/12/04 13:34:38;;;;;;;;;;;;;;;;;;5015113;28;822;-80
2020/12/04 13:37:04;;;;;;;;;;;;;;;;;;5014750;28;1458;-80
2020/12/04 13:39:29;;;;;;;;;;;;;;;;;;5016149;28;779;-81
2020/12/04 13:41:54;;;;;;;;;;;;;;;;;;5015857;28;1311;-80
2020/12/04 13:44:20;;;;;;;;;;;;;;;;;;5014805;28;1886;-80
2020/12/04 13:46:45;;;;;;;;;;;;;;;;;;5016230;28;815;-80
2020/12/04 13:49:10;;;;;;;;;;;;;;;;;;5016069;28;976;-80
2020/12/04 13:51:37;;;;;;;;;;;;;;;;;;5014811;28;1330;-80
2020/12/04 13:54:03;;;;;;;;;;;;;;;;;;5016053;28;808;-80
2020/12/04 13:56:28;;;;;;;;;;;;;;;;;;5014638;28;1220;-80
2020/12/04 13:58:53;;;;;;;;;;;;;;;;;;5014309;28;1284;-80
2020/12/04 14:01:20;;;;;;;;;;;;;;;;;;5015580;28;1274;-80
2020/12/04 14:03:49;;;;;;;;;;;;;;;;;;5015828;28;1907;-80
2020/12/04 14:06:15;;;;;;;;;;;;;;;;;;5014576;28;1255;-80
2020/12/04 14:08:41;;;;;;;;;;;;;;;;;;5014397;28;1317;-80
2020/12/04 14:11:06;;;;;;;;;;;;;;;;;;5014646;28;1459;-80
2020/12/04 14:13:31;;;;;;;;;;;;;;;;;;5013815;28;1265;-81
2020/12/04 14:15:57;;;;;;;;;;;;;;;;;;5013814;28;1252;-80
2020/12/04 14:18:22;;;;;;;;;;;;;;;;;;5015093;28;861;-80
2020/12/04 14:20:47;;;;;;;;;;;;;;;;;;5014638;28;929;-80
2020/12/04 14:23:12;;;;;;;;;;;;;;;;;;5014355;28;1351;-80
2020/12/04 14:25:39;;;;;;;;;;;;;;;;;;5013375;28;1894;-81
2020/12/04 14:28:05;;;;;;;;;;;;;;;;;;5014882;28;1239;-81
2020/12/04 14:30:30;;;;;;;;;;;;;;;;;;5014764;28;802;-80
2020/12/04 14:32:55;;;;;;;;;;;;;;;;;;5013275;28;1519;-80
2020/12/04 14:35:20;;;;;;;;;;;;;;;;;;5014881;28;842;-81
2020/12/04 14:37:47;;;;;;;;;;;;;;;;;;5014960;28;870;-81
2020/12/04 14:40:30;;;;;;;;;;;;;;;;;;5014422;28;818;-80
2020/12/04 14:42:56;;;;;;;;;;;;;;;;;;5014464;28;1373;-80
2020/12/04 14:45:22;;;;;;;;;;;;;;;;;;5014517;28;1894;-81
2020/12/04 14:47:47;;;;;;;;;;;;;;;;;;5014663;28;830;-80
2020/12/04 14:50:12;;;;;;;;;;;;;;;;;;5012831;28;893;-80
2020/12/04 14:52:37;;;;;;;;;;;;;;;;;;5014282;28;1310;-80
2020/12/04 14:55:03;;;;;;;;;;;;;;;;;;5013197;28;1228;-80
2020/12/04 14:57:28;;;;;;;;;;;;;;;;;;5014336;28;858;-80
2020/12/04 14:59:54;;;;;;;;;;;;;;;;;;5012914;28;1312;-81
2020/12/04 15:02:26;;;;;;;;;;;;;;;;;;5012974;28;1338;-80
2020/12/04 15:04:51;;;;;;;;;;;;;;;;;;5014420;28;1905;-80
2020/12/04 15:07:16;;;;;;;;;;;;;;;;;;5014010;28;936;-80
2020/12/04 15:09:42;;;;;;;;;;;;;;;;;;5012863;28;1117;-80
2020/12/04 15:12:07;;;;;;;;;;;;;;;;;;5013072;28;1354;-80
2020/12/04 15:14:32;;;;;;;;;;;;;;;;;;5013046;28;827;-80
2020/12/04 15:16:57;;;;;;;;;;;;;;;;;;5012955;28;1240;-80
2020/12/04 15:19:22;;;;;;;;;;;;;;;;;;5014127;28;941;-80
2020/12/04 15:21:48;;;;;;;;;;;;;;;;;;5012623;28;1420;-81
2020/12/04 15:24:13;;;;;;;;;;;;;;;;;;5012769;28;1955;-81
2020/12/04 15:26:38;;;;;;;;;;;;;;;;;;5014199;28;806;-81
2020/12/04 15:29:03;;;;;;;;;;;;;;;;;;5012990;28;1343;-80
2020/12/04 15:31:29;;;;;;;;;;;;;;;;;;5014020;28;1286;-81
2020/12/04 15:33:54;;;;;;;;;;;;;;;;;;5013010;28;1353;-80
2020/12/04 15:36:20;;;;;;;;;;;;;;;;;;5013085;28;1141;-81
2020/12/04 15:38:53;;;;;;;;;;;;;;;;;;5013808;28;815;-80
2020/12/04 15:41:21;;;;;;;;;;;;;;;;;;5012793;28;1424;-81
2020/12/04 15:43:47;;;;;;;;;;;;;;;;;;5013863;28;1905;-81
2020/12/04 15:46:12;;;;;;;;;;;;;;;;;;5012934;28;838;-81
2020/12/04 15:48:37;;;;;;;;;;;;;;;;;;5012408;28;1343;-81
2020/12/04 15:51:02;;;;;;;;;;;;;;;;;;5012104;28;1358;-81
2020/12/04 15:53:27;;;;;;;;;;;;;;;;;;5013665;28;842;-81
2020/12/04 15:55:53;;;;;;;;;;;;;;;;;;5013470;28;865;-80
2020/12/04 15:58:18;;;;;;;;;;;;;;;;;;5013973;28;862;-81
2020/12/04 16:00:43;;;;;;;;;;;;;;;;;;5012176;28;1427;-81
2020/12/04 16:03:08;;;;;;;;;;;;;;;;;;5014114;28;1354;-81
2020/12/04 16:05:34;;;;;;;;;;;;;;;;;;5016037;28;1894;-81
2020/12/04 16:07:59;;;;;;;;;;;;;;;;;;5017948;28;885;-81
2020/12/04 16:10:24;;;;;;;;;;;;;;;;;;5017191;28;798;-81
2020/12/04 16:12:50;;;;;;;;;;;;;;;;;;5016198;28;1357;-81
2020/12/04 16:15:16;;;;;;;;;;;;;;;;;;5017153;28;830;-81
2020/12/04 16:17:41;;;;;;;;;;;;;;;;;;5016120;28;1225;-80
2020/12/04 16:20:06;;;;;;;;;;;;;;;;;;5015986;28;1205;-79
2020/12/04 16:22:32;;;;;;;;;;;;;;;;;;5017154;28;1361;-80
2020/12/04 16:24:58;;;;;;;;;;;;;;;;;;5015811;28;1967;-79
2020/12/04 16:27:23;;;;;;;;;;;;;;;;;;5017076;28;873;-80
2020/12/04 16:29:48;;;;;;;;;;;;;;;;;;5015581;28;1302;-80
2020/12/04 16:32:13;;;;;;;;;;;;;;;;;;5015722;28;1405;-80
2020/12/04 16:34:39;;;;;;;;;;;;;;;;;;5016952;28;1047;-80
2020/12/04 16:37:07;;;;;;;;;;;;;;;;;;5016785;28;1017;-80
2020/12/04 16:39:33;;;;;;;;;;;;;;;;;;5015590;28;832;-80
2020/12/04 16:41:58;;;;;;;;;;;;;;;;;;5016654;28;1338;-80
2020/12/04 16:44:23;;;;;;;;;;;;;;;;;;5015448;28;1963;-80
2020/12/04 16:46:50;;;;;;;;;;;;;;;;;;5016690;28;870;-80
2020/12/04 16:49:15;;;;;;;;;;;;;;;;;;5016815;28;822;-80
2020/12/04 16:51:41;;;;;;;;;;;;;;;;;;5015274;28;1330;-80
2020/12/04 16:54:06;;;;;;;;;;;;;;;;;;5016697;28;869;-80
2020/12/04 16:56:31;;;;;;;;;;;;;;;;;;5015452;28;906;-80
2020/12/04 16:58:57;;;;;;;;;;;;;;;;;;5016374;28;893;-80
2020/12/04 17:01:22;;;;;;;;;;;;;;;;;;5014863;28;1322;-80
2020/12/04 17:03:47;;;;;;;;;;;;;;;;;;5015081;28;1898;-81
2020/12/04 17:06:17;;;;;;;;;;;;;;;;;;5015052;28;1322;-80
2020/12/04 17:08:42;;;;;;;;;;;;;;;;;;5016342;28;956;-80
2020/12/04 17:11:08;;;;;;;;;;;;;;;;;;5014845;28;1464;-80